createdAt,value
2022-10-05T00:01:31.819Z,100.00
2022-10-05T00:04:21.725Z,100.00
2022-10-05T00:07:00.252Z,100.00
2022-10-05T00:09:31.100Z,100.00
2022-10-05T00:11:58.039Z,100.00
2022-10-05T00:14:35.538Z,100.00
2022-10-05T00:17:05.165Z,100.00
2022-10-05T00:19:38.181Z,100.00
2022-10-05T00:22:15.758Z,100.00
2022-10-05T00:24:43.474Z,100.00
2022-10-05T00:27:31.270Z,100.00
2022-10-05T00:30:02.574Z,100.00
2022-10-05T00:32:30.018Z,100.00
2022-10-05T00:34:57.726Z,100.00
2022-10-05T00:37:24.779Z,100.00
2022-10-05T00:39:53.478Z,100.00
2022-10-05T00:42:26.293Z,100.00
2022-10-05T00:45:03.893Z,100.00
2022-10-05T00:47:50.967Z,100.00
2022-10-05T00:50:27.727Z,100.00
2022-10-05T00:53:22.766Z,100.00
2022-10-05T00:56:13.044Z,100.00
2022-10-05T00:59:01.623Z,100.00
2022-10-05T01:01:54.420Z,100.00
2022-10-05T01:04:29.989Z,100.00
2022-10-05T01:07:07.898Z,100.00
2022-10-05T01:10:11.229Z,100.00
2022-10-05T01:12:50.314Z,100.00
2022-10-05T01:15:20.061Z,100.00
2022-10-05T01:18:22.683Z,100.00
2022-10-05T01:20:54.758Z,100.00
2022-10-05T01:23:40.604Z,100.00
2022-10-05T01:26:23.339Z,100.00
2022-10-05T01:29:05.243Z,100.00
2022-10-05T01:31:37.466Z,100.00
2022-10-05T01:34:17.119Z,100.00
2022-10-05T01:37:08.844Z,100.00
2022-10-05T01:39:47.360Z,100.00
2022-10-05T01:42:48.073Z,100.00
2022-10-05T01:45:38.630Z,100.00
2022-10-05T01:49:02.588Z,100.00
2022-10-05T01:51:51.311Z,100.00
2022-10-05T01:54:36.796Z,100.00
2022-10-05T01:57:19.141Z,100.00
2022-10-05T02:00:09.033Z,100.00
2022-10-05T02:02:47.752Z,100.00
2022-10-05T02:05:22.346Z,100.00
2022-10-05T02:07:56.077Z,100.00
2022-10-05T02:10:30.359Z,100.00
2022-10-05T02:13:15.621Z,100.00
2022-10-05T02:15:46.264Z,100.00
2022-10-05T02:18:30.255Z,100.00
2022-10-05T02:21:02.993Z,100.00
2022-10-05T02:23:33.659Z,100.00
2022-10-05T02:26:01.509Z,100.00
2022-10-05T02:28:55.482Z,100.00
2022-10-05T02:31:50.459Z,100.00
2022-10-05T02:34:22.673Z,100.00
2022-10-05T02:37:10.319Z,100.00
2022-10-05T02:39:47.741Z,100.00
2022-10-05T02:42:32.951Z,100.00
2022-10-05T02:44:59.559Z,100.00
2022-10-05T02:47:43.259Z,100.00
2022-10-05T02:50:16.200Z,100.00
2022-10-05T02:53:12.754Z,100.00
2022-10-05T02:56:20.175Z,100.00
2022-10-05T02:58:50.224Z,100.00
2022-10-05T03:01:28.100Z,100.00
2022-10-05T03:04:11.663Z,100.00
2022-10-05T03:07:07.690Z,100.00
2022-10-05T03:09:41.382Z,100.00
2022-10-05T03:12:17.694Z,100.00
2022-10-05T03:15:09.583Z,100.00
2022-10-05T03:18:21.734Z,100.00
2022-10-05T03:20:57.642Z,100.00
2022-10-05T03:23:33.178Z,100.00
2022-10-05T03:26:09.001Z,100.00
2022-10-05T03:28:58.809Z,100.00
2022-10-05T03:31:46.105Z,100.00
2022-10-05T03:34:22.502Z,100.00
2022-10-05T03:37:31.585Z,100.00
2022-10-05T03:40:09.550Z,100.00
2022-10-05T03:42:39.843Z,100.00
2022-10-05T03:45:25.594Z,100.00
2022-10-05T03:48:01.832Z,100.00
2022-10-05T03:50:54.505Z,100.00
2022-10-05T03:53:38.548Z,100.00
2022-10-05T03:56:13.690Z,100.00
2022-10-05T03:59:03.009Z,100.00
2022-10-05T04:01:39.805Z,100.00
2022-10-05T04:04:13.736Z,100.00
2022-10-05T04:06:49.225Z,100.00
2022-10-05T04:09:39.521Z,100.00
2022-10-05T04:12:15.353Z,100.00
2022-10-05T04:14:48.471Z,100.00
2022-10-05T04:17:19.378Z,100.00
2022-10-05T04:20:02.238Z,100.00
2022-10-05T04:22:37.260Z,100.00
2022-10-05T04:25:19.031Z,100.00
2022-10-05T04:28:09.829Z,100.00
2022-10-05T04:30:41.776Z,100.00
2022-10-05T04:33:11.652Z,100.00
2022-10-05T04:36:00.044Z,100.00
2022-10-05T04:39:05.309Z,100.00
2022-10-05T04:41:52.174Z,100.00
2022-10-05T04:44:48.251Z,100.00
2022-10-05T04:47:29.346Z,100.00
2022-10-05T04:50:34.233Z,100.00
2022-10-05T04:53:33.574Z,100.00
2022-10-05T04:56:07.056Z,100.00
2022-10-05T04:58:45.609Z,100.00
2022-10-05T05:01:35.872Z,100.00
2022-10-05T05:04:27.380Z,100.00
2022-10-05T05:07:15.252Z,100.00
2022-10-05T05:09:41.916Z,100.00
2022-10-05T05:12:43.727Z,100.00
2022-10-05T05:15:30.205Z,100.00
2022-10-05T05:18:12.763Z,100.00
2022-10-05T05:20:45.334Z,100.00
2022-10-05T05:23:44.472Z,100.00
2022-10-05T05:26:29.603Z,100.00
2022-10-05T05:29:33.896Z,100.00
2022-10-05T05:32:24.998Z,100.00
2022-10-05T05:34:57.982Z,100.00
2022-10-05T05:37:52.178Z,100.00
2022-10-05T05:40:35.200Z,100.00
2022-10-05T05:43:20.874Z,100.00
2022-10-05T05:46:34.015Z,100.00
2022-10-05T05:49:22.781Z,100.00
2022-10-05T05:52:16.103Z,100.00
2022-10-05T05:54:54.749Z,100.00
2022-10-05T05:57:38.772Z,100.00
2022-10-05T06:00:15.100Z,100.00
2022-10-05T06:03:15.050Z,100.00
2022-10-05T06:05:49.901Z,100.00
2022-10-05T06:08:29.123Z,100.00
2022-10-05T06:11:11.228Z,100.00
2022-10-05T06:13:42.592Z,100.00
2022-10-05T06:16:39.139Z,100.00
2022-10-05T06:19:13.953Z,100.00
2022-10-05T06:21:40.908Z,100.00
2022-10-05T06:24:31.820Z,100.00
2022-10-05T06:27:20.534Z,100.00
2022-10-05T06:30:04.634Z,100.00
2022-10-05T06:32:49.927Z,100.00
2022-10-05T06:35:17.780Z,100.00
2022-10-05T06:38:08.156Z,100.00
2022-10-05T06:40:59.466Z,100.00
2022-10-05T06:43:29.449Z,99.06
2022-10-05T06:46:29.128Z,98.09
2022-10-05T06:49:19.148Z,96.75
2022-10-05T06:52:16.279Z,95.88
2022-10-05T06:55:30.333Z,95.63
2022-10-05T06:58:18.636Z,95.13
2022-10-05T07:01:02.964Z,94.39
2022-10-05T07:03:49.530Z,95.72
2022-10-05T07:06:34.175Z,94.47
2022-10-05T07:09:37.530Z,94.66
2022-10-05T07:12:09.968Z,94.31
2022-10-05T07:14:48.659Z,93.76
2022-10-05T07:17:44.312Z,92.82
2022-10-05T07:20:17.377Z,92.05
2022-10-05T07:23:23.069Z,90.77
2022-10-05T07:26:01.900Z,90.04
2022-10-05T07:28:39.367Z,90.88
2022-10-05T07:31:31.648Z,91.64
2022-10-05T07:34:15.445Z,90.93
2022-10-05T07:37:09.793Z,90.23
2022-10-05T07:40:01.088Z,89.58
2022-10-05T07:43:08.898Z,88.71
2022-10-05T07:45:46.852Z,87.92
2022-10-05T07:48:33.209Z,86.86
2022-10-05T07:51:27.587Z,84.48
2022-10-05T07:54:13.629Z,82.89
2022-10-05T07:56:44.499Z,82.40
2022-10-05T07:59:22.337Z,82.75
2022-10-05T08:01:59.723Z,82.32
2022-10-05T08:04:55.895Z,81.67
2022-10-05T08:09:59.501Z,78.01
2022-10-05T08:13:07.671Z,76.92
2022-10-05T08:15:43.244Z,75.89
2022-10-05T08:18:39.743Z,76.54
2022-10-05T08:21:12.010Z,76.01
2022-10-05T08:23:55.273Z,75.49
2022-10-05T08:26:33.597Z,76.18
2022-10-05T08:29:19.021Z,75.25
2022-10-05T08:32:02.550Z,77.37
2022-10-05T08:34:47.869Z,79.84
2022-10-05T08:37:21.410Z,80.32
2022-10-05T08:39:52.649Z,78.67
2022-10-05T08:42:35.454Z,77.48
2022-10-05T08:45:20.929Z,76.16
2022-10-05T08:48:15.457Z,76.35
2022-10-05T08:51:03.885Z,78.63
2022-10-05T08:53:45.592Z,78.58
2022-10-05T08:56:42.458Z,73.38
2022-10-05T08:59:47.364Z,77.53
2022-10-05T09:02:38.990Z,77.84
2022-10-05T09:05:24.474Z,76.38
2022-10-05T09:08:03.629Z,76.59
2022-10-05T09:10:58.205Z,76.14
2022-10-05T09:13:39.607Z,74.67
2022-10-05T09:16:15.284Z,73.30
2022-10-05T09:19:02.197Z,72.92
2022-10-05T09:21:36.747Z,73.18
2022-10-05T09:24:12.549Z,74.04
2022-10-05T09:26:59.296Z,74.70
2022-10-05T09:29:31.888Z,75.25
2022-10-05T09:32:34.316Z,75.41
2022-10-05T09:35:09.985Z,76.01
2022-10-05T09:37:36.585Z,75.05
2022-10-05T09:40:27.957Z,75.57
2022-10-05T09:43:03.771Z,76.92
2022-10-05T09:45:35.806Z,78.64
2022-10-05T09:48:25.948Z,78.94
2022-10-05T09:51:10.822Z,80.41
2022-10-05T09:53:52.685Z,81.51
2022-10-05T09:56:40.934Z,82.19
2022-10-05T09:59:25.887Z,82.94
2022-10-05T10:02:16.400Z,84.15
2022-10-05T10:04:56.318Z,81.57
2022-10-05T10:07:53.968Z,81.50
2022-10-05T10:10:58.358Z,80.94
2022-10-05T10:14:00.861Z,79.50
2022-10-05T10:16:40.901Z,77.92
2022-10-05T10:19:35.655Z,78.43
2022-10-05T10:22:05.337Z,77.74
2022-10-05T10:24:53.763Z,78.82
2022-10-05T10:27:33.737Z,77.99
2022-10-05T10:30:09.429Z,78.78
2022-10-05T10:32:51.330Z,78.05
2022-10-05T10:38:42.312Z,78.19
2022-10-05T10:41:39.586Z,79.06
2022-10-05T10:44:27.761Z,79.44
2022-10-05T10:47:13.686Z,80.51
2022-10-05T10:50:30.317Z,76.62
2022-10-05T10:53:12.654Z,76.35
2022-10-05T10:56:07.545Z,75.32
2022-10-05T10:58:59.678Z,73.12
2022-10-05T11:01:54.997Z,73.86
2022-10-05T11:04:40.610Z,70.81
2022-10-05T11:07:22.466Z,70.54
2022-10-05T11:10:09.056Z,72.29
2022-10-05T11:12:51.629Z,72.83
2022-10-05T11:15:52.519Z,73.68
2022-10-05T11:18:41.137Z,69.27
2022-10-05T11:21:17.032Z,67.65
2022-10-05T11:24:13.086Z,66.09
2022-10-05T11:26:39.917Z,66.92
2022-10-05T11:29:06.485Z,67.14
2022-10-05T11:31:42.489Z,67.28
2022-10-05T11:34:40.905Z,65.95
2022-10-05T11:37:13.521Z,65.91
2022-10-05T11:40:02.896Z,66.82
2022-10-05T11:42:41.964Z,67.53
2022-10-05T11:45:23.996Z,66.56
2022-10-05T11:48:21.901Z,67.06
2022-10-05T11:51:17.469Z,66.89
2022-10-05T11:54:06.692Z,66.39
2022-10-05T11:56:57.307Z,66.78
2022-10-05T11:59:37.193Z,66.24
2022-10-05T12:02:43.101Z,66.95
2022-10-05T12:05:32.635Z,67.72
2022-10-05T12:08:35.969Z,66.62
2022-10-05T12:11:15.679Z,65.68
2022-10-05T12:13:48.424Z,65.61
2022-10-05T12:16:28.745Z,65.77
2022-10-05T12:19:09.082Z,65.59
2022-10-05T12:21:44.291Z,64.03
2022-10-05T12:24:30.184Z,62.32
2022-10-05T12:27:02.809Z,62.92
2022-10-05T12:29:35.378Z,63.02
2022-10-05T12:32:13.466Z,63.05
2022-10-05T12:35:03.290Z,62.91
2022-10-05T12:37:54.199Z,64.07
2022-10-05T12:40:31.978Z,62.66
2022-10-05T12:43:20.588Z,63.06
2022-10-05T12:46:03.511Z,62.44
2022-10-05T12:49:14.926Z,62.54
2022-10-05T12:51:48.099Z,63.24
2022-10-05T12:54:33.105Z,63.32
2022-10-05T12:57:18.878Z,62.57
2022-10-05T12:59:55.086Z,61.74
2022-10-05T13:02:32.592Z,62.47
2022-10-05T13:05:02.330Z,61.68
2022-10-05T13:07:35.205Z,60.97
2022-10-05T13:10:24.683Z,59.75
2022-10-05T13:13:16.205Z,60.09
2022-10-05T13:16:15.795Z,60.90
2022-10-05T13:19:07.604Z,61.27
2022-10-05T13:21:53.532Z,60.75
2022-10-05T13:24:59.498Z,59.12
2022-10-05T13:27:35.516Z,60.03
2022-10-05T13:30:05.821Z,59.97
2022-10-05T13:32:36.453Z,60.83
2022-10-05T13:35:13.462Z,60.82
2022-10-05T13:38:01.803Z,60.50
2022-10-05T13:40:45.120Z,60.51
2022-10-05T13:43:23.674Z,60.00
2022-10-05T13:45:52.766Z,60.33
2022-10-05T13:48:50.525Z,60.47
2022-10-05T13:51:24.568Z,61.42
2022-10-05T13:54:14.298Z,61.63
2022-10-05T13:56:46.151Z,58.24
2022-10-05T13:59:40.284Z,59.13
2022-10-05T14:02:21.038Z,59.53
2022-10-05T14:04:59.019Z,60.26
2022-10-05T14:07:34.223Z,59.07
2022-10-05T14:10:03.122Z,58.60
2022-10-05T14:12:39.722Z,59.02
2022-10-05T14:15:42.084Z,60.13
2022-10-05T14:18:24.316Z,60.44
2022-10-05T14:21:09.795Z,59.96
2022-10-05T14:23:36.465Z,60.80
2022-10-05T14:26:04.434Z,60.73
2022-10-05T14:28:38.468Z,60.89
2022-10-05T14:31:26.607Z,61.29
2022-10-05T14:33:53.437Z,60.95
2022-10-05T14:36:36.277Z,60.34
2022-10-05T14:39:05.168Z,61.13
2022-10-05T14:41:37.626Z,60.76
2022-10-05T14:44:13.445Z,60.83
2022-10-05T14:46:53.254Z,61.80
2022-10-05T14:49:36.237Z,60.59
2022-10-05T14:52:28.828Z,60.38
2022-10-05T14:55:08.790Z,61.01
2022-10-05T14:58:09.206Z,60.89
2022-10-05T15:00:48.955Z,59.49
2022-10-05T15:03:31.874Z,60.87
2022-10-05T15:06:01.718Z,60.63
2022-10-05T15:08:45.261Z,60.78
2022-10-05T15:11:36.819Z,61.44
2022-10-05T15:14:14.673Z,61.92
2022-10-05T15:16:42.217Z,61.96
2022-10-05T15:20:05.195Z,62.75
2022-10-05T15:22:41.163Z,61.79
2022-10-05T15:25:22.262Z,62.23
2022-10-05T15:28:04.134Z,63.04
2022-10-05T15:30:32.567Z,63.47
2022-10-05T15:33:35.546Z,64.10
2022-10-05T15:36:14.891Z,64.47
2022-10-05T15:38:44.758Z,65.02
2022-10-05T15:41:17.770Z,65.67
2022-10-05T15:43:47.206Z,65.79
2022-10-05T15:46:35.631Z,66.17
2022-10-05T15:49:11.598Z,66.68
2022-10-05T15:51:45.237Z,67.24
2022-10-05T15:54:40.058Z,67.75
2022-10-05T15:57:25.102Z,67.96
2022-10-05T16:00:02.122Z,68.82
2022-10-05T16:02:51.349Z,68.89
2022-10-05T16:05:57.874Z,69.10
2022-10-05T16:08:54.037Z,69.29
2022-10-05T16:11:33.340Z,70.05
2022-10-05T16:14:19.406Z,70.16
2022-10-05T16:17:10.828Z,70.93
2022-10-05T16:19:56.622Z,71.13
2022-10-05T16:22:37.853Z,71.68
2022-10-05T16:25:23.446Z,71.88
2022-10-05T16:28:22.902Z,72.34
2022-10-05T16:31:01.191Z,72.42
2022-10-05T16:33:56.637Z,72.85
2022-10-05T16:36:43.132Z,73.48
2022-10-05T16:39:20.532Z,73.82
2022-10-05T16:41:59.976Z,74.40
2022-10-05T16:44:48.048Z,74.92
2022-10-05T16:47:33.114Z,75.57
2022-10-05T16:50:17.877Z,76.32
2022-10-05T16:52:50.539Z,76.77
2022-10-05T16:55:38.830Z,77.29
2022-10-05T16:58:15.940Z,77.93
2022-10-05T17:01:02.129Z,78.24
2022-10-05T17:04:00.162Z,78.46
2022-10-05T17:06:30.179Z,79.52
2022-10-05T17:09:19.317Z,79.57
2022-10-05T17:12:20.794Z,80.41
2022-10-05T17:15:20.768Z,80.96
2022-10-05T17:18:16.664Z,81.66
2022-10-05T17:20:43.293Z,82.35
2022-10-05T17:23:31.289Z,82.74
2022-10-05T17:26:34.565Z,83.19
2022-10-05T17:29:15.565Z,83.58
2022-10-05T17:32:09.580Z,84.52
2022-10-05T17:34:56.893Z,85.09
2022-10-05T17:37:38.013Z,85.47
2022-10-05T17:40:30.752Z,85.95
2022-10-05T17:43:18.374Z,86.39
2022-10-05T17:45:45.049Z,86.44
2022-10-05T17:48:12.899Z,86.91
2022-10-05T17:51:01.182Z,87.48
2022-10-05T17:54:01.585Z,87.76
2022-10-05T17:56:29.659Z,87.97
2022-10-05T17:58:59.469Z,88.31
2022-10-05T18:01:30.298Z,88.72
2022-10-05T18:04:24.871Z,88.96
2022-10-05T18:07:15.267Z,89.48
2022-10-05T18:10:20.115Z,89.73
2022-10-05T18:12:51.214Z,90.51
2022-10-05T18:15:24.115Z,90.83
2022-10-05T18:17:56.113Z,91.18
2022-10-05T18:20:26.568Z,91.43
2022-10-05T18:23:23.181Z,91.38
2022-10-05T18:26:01.405Z,91.28
2022-10-05T18:29:14.087Z,91.66
2022-10-05T18:31:51.348Z,91.32
2022-10-05T18:34:38.508Z,91.34
2022-10-05T18:37:21.586Z,91.49
2022-10-05T18:40:01.711Z,91.84
2022-10-05T18:42:28.381Z,91.93
2022-10-05T18:45:21.933Z,92.09
2022-10-05T18:48:07.420Z,92.46
2022-10-05T18:50:51.348Z,92.59
2022-10-05T18:53:30.140Z,92.73
2022-10-05T18:56:21.647Z,92.98
2022-10-05T18:59:00.866Z,93.64
2022-10-05T19:01:55.318Z,94.30
2022-10-05T19:04:43.757Z,94.79
2022-10-05T19:07:23.206Z,95.75
2022-10-05T19:09:57.678Z,96.25
2022-10-05T19:12:41.238Z,96.20
2022-10-05T19:15:17.305Z,96.52
2022-10-05T19:17:49.967Z,97.07
2022-10-05T19:20:19.472Z,96.94
2022-10-05T19:23:09.477Z,97.36
2022-10-05T19:26:11.922Z,97.18
2022-10-05T19:29:09.033Z,96.98
2022-10-05T19:31:44.506Z,97.06
2022-10-05T19:34:56.578Z,97.50
2022-10-05T19:37:42.405Z,97.82
2022-10-05T19:40:24.424Z,98.20
2022-10-05T19:43:15.591Z,98.17
2022-10-05T19:46:14.076Z,98.17
2022-10-05T19:48:48.584Z,97.87
2022-10-05T19:51:28.794Z,98.04
2022-10-05T19:54:02.480Z,98.02
2022-10-05T19:56:34.324Z,97.97
2022-10-05T19:59:17.476Z,97.97
2022-10-05T20:01:50.154Z,97.89
2022-10-05T20:04:32.099Z,97.87
2022-10-05T20:06:59.717Z,97.50
2022-10-05T20:09:26.404Z,97.21
2022-10-05T20:11:53.574Z,97.12
2022-10-05T20:14:29.306Z,97.10
2022-10-05T20:17:44.466Z,97.00
2022-10-05T20:20:45.750Z,97.12
2022-10-05T20:23:28.031Z,97.22
2022-10-05T20:26:13.323Z,96.80
2022-10-05T20:28:40.192Z,96.71
2022-10-05T20:31:08.041Z,96.76
2022-10-05T20:33:34.947Z,97.07
2022-10-05T20:36:03.713Z,97.10
2022-10-05T20:38:31.640Z,97.13
2022-10-05T20:40:58.640Z,97.37
2022-10-05T20:43:25.318Z,97.25
2022-10-05T20:45:52.331Z,97.41
2022-10-05T20:48:19.592Z,97.31
2022-10-05T20:50:47.339Z,97.11
2022-10-05T20:53:14.042Z,97.05
2022-10-05T20:55:40.749Z,96.54
2022-10-05T20:58:09.070Z,96.97
2022-10-05T21:00:54.614Z,96.84
2022-10-05T21:03:21.321Z,96.90
2022-10-05T21:05:48.025Z,96.89
2022-10-05T21:08:15.275Z,96.90
2022-10-05T21:10:41.949Z,97.29
2022-10-05T21:13:09.146Z,97.52
2022-10-05T21:15:35.837Z,97.93
2022-10-05T21:18:02.521Z,97.84
2022-10-05T21:20:29.166Z,97.77
2022-10-05T21:22:55.770Z,97.78
2022-10-05T21:25:22.591Z,97.95
2022-10-05T21:27:50.312Z,97.65
2022-10-05T21:30:17.184Z,97.04
2022-10-05T21:32:44.820Z,97.34
2022-10-05T21:35:11.666Z,97.29
2022-10-05T21:37:38.486Z,97.18
2022-10-05T21:40:05.590Z,96.81
2022-10-05T21:42:32.591Z,97.10
2022-10-05T21:44:59.338Z,96.37
2022-10-05T21:47:26.346Z,96.09
2022-10-05T21:49:54.015Z,95.92
2022-10-05T21:52:21.489Z,95.40
2022-10-05T21:54:48.212Z,95.72
2022-10-05T21:57:15.437Z,95.68
2022-10-05T21:59:42.641Z,95.99
2022-10-05T22:02:09.312Z,96.27
2022-10-05T22:04:35.982Z,96.67
2022-10-05T22:07:10.553Z,96.88
2022-10-05T22:09:37.193Z,96.71
2022-10-05T22:12:04.002Z,96.72
2022-10-05T22:14:31.497Z,97.02
2022-10-05T22:16:58.171Z,97.27
2022-10-05T22:19:24.830Z,97.08
2022-10-05T22:21:51.541Z,97.66
2022-10-05T22:24:18.179Z,97.45
2022-10-05T22:26:47.305Z,97.46
2022-10-05T22:29:15.955Z,97.03
2022-10-05T22:31:43.003Z,96.43
2022-10-05T22:34:09.741Z,96.38
2022-10-05T22:36:37.462Z,96.44
2022-10-05T22:39:04.454Z,96.93
2022-10-05T22:41:31.233Z,97.70
2022-10-05T22:43:57.890Z,98.04
2022-10-05T22:46:26.127Z,99.04
2022-10-05T22:48:52.816Z,99.85
2022-10-05T22:51:19.522Z,99.90
2022-10-05T22:53:46.180Z,100.00
2022-10-05T22:56:14.370Z,100.00
2022-10-05T22:58:42.369Z,100.00
2022-10-05T23:01:12.231Z,100.00
2022-10-05T23:03:39.551Z,100.00
2022-10-05T23:06:15.264Z,100.00
2022-10-05T23:08:43.124Z,100.00
2022-10-05T23:11:18.962Z,100.00
2022-10-05T23:13:45.660Z,100.00
2022-10-05T23:16:19.858Z,100.00
2022-10-05T23:18:52.621Z,100.00
2022-10-05T23:21:21.105Z,100.00
2022-10-05T23:23:51.782Z,100.00
2022-10-05T23:26:22.826Z,100.00
2022-10-05T23:28:50.289Z,100.00
2022-10-05T23:31:20.531Z,100.00
2022-10-05T23:33:47.493Z,100.00
2022-10-05T23:36:17.661Z,100.00
2022-10-05T23:38:44.831Z,100.00
2022-10-05T23:41:12.446Z,100.00
2022-10-05T23:43:40.442Z,100.00
2022-10-05T23:46:08.136Z,100.00
2022-10-05T23:48:38.164Z,100.00
2022-10-05T23:51:12.831Z,100.00
2022-10-05T23:53:40.308Z,100.00
2022-10-05T23:56:07.423Z,100.00
2022-10-05T23:58:34.728Z,100.00
